createdAt,value
2023-05-08T00:00:43.467Z,604.00
2023-05-08T00:01:43.455Z,599.00
2023-05-08T00:02:43.508Z,599.00
2023-05-08T00:03:43.596Z,603.00
2023-05-08T00:04:43.454Z,598.00
2023-05-08T00:05:43.440Z,603.00
2023-05-08T00:06:43.434Z,600.00
2023-05-08T00:07:43.456Z,603.00
2023-05-08T00:08:43.467Z,603.00
2023-05-08T00:09:43.436Z,600.00
2023-05-08T00:10:43.450Z,603.00
2023-05-08T00:11:43.484Z,599.00
2023-05-08T00:12:43.609Z,600.00
2023-05-08T00:13:43.443Z,602.00
2023-05-08T00:14:43.476Z,600.00
2023-05-08T00:15:43.466Z,602.00
2023-05-08T00:16:44.095Z,602.00
2023-05-08T00:17:43.553Z,601.00
2023-05-08T00:18:43.506Z,601.00
2023-05-08T00:19:43.489Z,600.00
2023-05-08T00:20:43.495Z,594.00
2023-05-08T00:21:43.488Z,600.00
2023-05-08T00:22:43.493Z,600.00
2023-05-08T00:23:43.510Z,601.00
2023-05-08T00:24:43.476Z,602.00
2023-05-08T00:25:43.449Z,602.00
2023-05-08T00:26:43.589Z,603.00
2023-05-08T00:27:43.459Z,600.00
2023-05-08T00:28:43.508Z,603.00
2023-05-08T00:29:43.450Z,601.00
2023-05-08T00:30:43.463Z,601.00
2023-05-08T00:31:43.531Z,602.00
2023-05-08T00:32:43.514Z,595.00
2023-05-08T00:33:43.491Z,596.00
2023-05-08T00:34:43.463Z,599.00
2023-05-08T00:35:43.449Z,598.00
2023-05-08T00:36:43.491Z,601.00
2023-05-08T00:37:43.501Z,599.00
2023-05-08T00:38:43.529Z,598.00
2023-05-08T00:39:43.497Z,594.00
2023-05-08T00:40:43.533Z,599.00
2023-05-08T00:41:43.504Z,597.00
2023-05-08T00:42:43.521Z,599.00
2023-05-08T00:43:43.550Z,601.00
2023-05-08T00:44:43.614Z,598.00
2023-05-08T00:45:43.563Z,599.00
2023-05-08T00:46:43.648Z,596.00
2023-05-08T00:47:43.640Z,605.00
2023-05-08T00:48:43.578Z,601.00
2023-05-08T00:49:43.600Z,600.00
2023-05-08T00:50:43.578Z,594.00
2023-05-08T00:51:43.595Z,599.00
2023-05-08T00:52:43.607Z,592.00
2023-05-08T00:53:43.568Z,598.00
2023-05-08T00:54:43.569Z,592.00
2023-05-08T00:55:43.599Z,597.00
2023-05-08T00:56:43.598Z,596.00
2023-05-08T00:57:43.575Z,595.00
2023-05-08T00:58:43.610Z,597.00
2023-05-08T00:59:43.615Z,596.00
2023-05-08T01:00:43.616Z,597.00
2023-05-08T01:01:43.671Z,596.00
2023-05-08T01:02:43.634Z,596.00
2023-05-08T01:03:43.766Z,598.00
2023-05-08T01:04:43.651Z,591.00
2023-05-08T01:05:43.662Z,596.00
2023-05-08T01:06:43.674Z,596.00
2023-05-08T01:07:43.679Z,597.00
2023-05-08T01:08:43.652Z,593.00
2023-05-08T01:09:43.640Z,594.00
2023-05-08T01:10:43.667Z,593.00
2023-05-08T01:11:44.085Z,590.00
2023-05-08T01:12:43.729Z,597.00
2023-05-08T01:13:43.709Z,600.00
2023-05-08T01:14:43.693Z,587.00
2023-05-08T01:15:43.805Z,596.00
2023-05-08T01:16:43.744Z,595.00
2023-05-08T01:17:43.806Z,596.00
2023-05-08T01:18:43.736Z,592.00
2023-05-08T01:19:43.765Z,596.00
2023-05-08T01:20:43.768Z,597.00
2023-05-08T01:21:43.785Z,595.00
2023-05-08T01:22:43.772Z,600.00
2023-05-08T01:23:43.788Z,595.00
2023-05-08T01:24:43.796Z,595.00
2023-05-08T01:25:43.815Z,599.00
2023-05-08T01:26:43.831Z,593.00
2023-05-08T01:27:43.825Z,598.00
2023-05-08T01:28:43.810Z,598.00
2023-05-08T01:29:43.833Z,594.00
2023-05-08T01:30:43.903Z,594.00
2023-05-08T01:31:43.844Z,595.00
2023-05-08T01:32:43.865Z,595.00
2023-05-08T01:33:43.915Z,593.00
2023-05-08T01:34:43.875Z,596.00
2023-05-08T01:35:43.860Z,591.00
2023-05-08T01:36:43.866Z,592.00
2023-05-08T01:37:43.896Z,590.00
2023-05-08T01:38:43.888Z,594.00
2023-05-08T01:39:43.900Z,596.00
2023-05-08T01:40:43.885Z,595.00
2023-05-08T01:41:43.912Z,592.00
2023-05-08T01:42:43.906Z,592.00
2023-05-08T01:43:43.895Z,592.00
2023-05-08T01:44:43.937Z,593.00
2023-05-08T01:45:43.951Z,593.00
2023-05-08T01:46:43.991Z,590.00
2023-05-08T01:47:44.001Z,588.00
2023-05-08T01:48:43.989Z,592.00
2023-05-08T01:49:43.968Z,587.00
2023-05-08T01:50:43.987Z,594.00
2023-05-08T01:51:43.994Z,587.00
2023-05-08T01:52:44.021Z,589.00
2023-05-08T01:53:43.976Z,590.00
2023-05-08T01:54:44.018Z,593.00
2023-05-08T01:55:44.031Z,587.00
2023-05-08T01:56:44.060Z,588.00
2023-05-08T01:57:44.046Z,590.00
2023-05-08T01:58:44.032Z,587.00
2023-05-08T01:59:44.072Z,587.00
2023-05-08T02:00:44.113Z,592.00
2023-05-08T02:01:44.153Z,594.00
2023-05-08T02:02:44.188Z,592.00
2023-05-08T02:03:44.225Z,590.00
2023-05-08T02:04:44.152Z,590.00
2023-05-08T02:05:44.194Z,591.00
2023-05-08T02:06:44.194Z,589.00
2023-05-08T02:07:44.174Z,587.00
2023-05-08T02:08:44.219Z,592.00
2023-05-08T02:09:44.222Z,589.00
2023-05-08T02:10:44.244Z,585.00
2023-05-08T02:11:44.262Z,591.00
2023-05-08T02:12:44.302Z,591.00
2023-05-08T02:13:44.283Z,593.00
2023-05-08T02:14:44.324Z,588.00
2023-05-08T02:15:44.299Z,594.00
2023-05-08T02:16:44.418Z,589.00
2023-05-08T02:17:44.379Z,591.00
2023-05-08T02:18:44.305Z,592.00
2023-05-08T02:19:44.347Z,588.00
2023-05-08T02:20:44.373Z,588.00
2023-05-08T02:21:44.369Z,591.00
2023-05-08T02:22:44.375Z,588.00
2023-05-08T02:23:44.397Z,591.00
2023-05-08T02:24:44.392Z,591.00
2023-05-08T02:25:44.383Z,589.00
2023-05-08T02:26:44.438Z,589.00
2023-05-08T02:27:44.455Z,589.00
2023-05-08T02:28:44.458Z,590.00
2023-05-08T02:29:44.464Z,591.00
2023-05-08T02:30:44.471Z,592.00
2023-05-08T02:31:44.481Z,587.00
2023-05-08T02:32:44.580Z,586.00
2023-05-08T02:33:44.491Z,591.00
2023-05-08T02:34:54.924Z,587.00
2023-05-08T02:35:45.542Z,587.00
2023-05-08T02:36:44.506Z,588.00
2023-05-08T02:37:44.480Z,586.00
2023-05-08T02:38:44.504Z,585.00
2023-05-08T02:39:44.450Z,586.00
2023-05-08T02:40:44.504Z,585.00
2023-05-08T02:41:44.492Z,585.00
2023-05-08T02:42:44.453Z,581.00
2023-05-08T02:43:44.473Z,586.00
2023-05-08T02:44:44.461Z,584.00
2023-05-08T02:45:44.463Z,584.00
2023-05-08T02:46:44.606Z,587.00
2023-05-08T02:47:44.489Z,584.00
2023-05-08T02:48:44.425Z,583.00
2023-05-08T02:49:44.419Z,583.00
2023-05-08T02:50:44.403Z,586.00
2023-05-08T02:51:44.417Z,585.00
2023-05-08T02:52:44.358Z,587.00
2023-05-08T02:53:44.379Z,587.00
2023-05-08T02:54:44.402Z,588.00
2023-05-08T02:55:44.374Z,585.00
2023-05-08T02:56:44.643Z,584.00
2023-05-08T02:57:44.342Z,588.00
2023-05-08T02:58:44.357Z,583.00
2023-05-08T02:59:44.363Z,585.00
2023-05-08T03:00:44.315Z,587.00
2023-05-08T03:01:44.349Z,585.00
2023-05-08T03:02:44.399Z,587.00
2023-05-08T03:03:44.417Z,583.00
2023-05-08T03:04:44.298Z,589.00
2023-05-08T03:05:44.300Z,584.00
2023-05-08T03:06:44.311Z,584.00
2023-05-08T03:07:44.306Z,584.00
2023-05-08T03:08:44.312Z,584.00
2023-05-08T03:09:44.380Z,585.00
2023-05-08T03:10:44.347Z,585.00
2023-05-08T03:11:44.396Z,582.00
2023-05-08T03:12:44.440Z,583.00
2023-05-08T03:13:44.386Z,581.00
2023-05-08T03:14:44.428Z,583.00
2023-05-08T03:15:44.490Z,583.00
2023-05-08T03:16:44.471Z,583.00
2023-05-08T03:17:44.498Z,584.00
2023-05-08T03:18:44.495Z,582.00
2023-05-08T03:19:44.491Z,585.00
2023-05-08T03:20:44.504Z,580.00
2023-05-08T03:21:44.619Z,585.00
2023-05-08T03:22:44.530Z,580.00
2023-05-08T03:23:44.569Z,582.00
2023-05-08T03:24:44.589Z,582.00
2023-05-08T03:25:44.609Z,583.00
2023-05-08T03:26:44.597Z,585.00
2023-05-08T03:27:44.595Z,580.00
2023-05-08T03:28:44.607Z,583.00
2023-05-08T03:29:44.660Z,580.00
2023-05-08T03:30:44.676Z,579.00
2023-05-08T03:31:44.791Z,579.00
2023-05-08T03:32:44.706Z,579.00
2023-05-08T03:33:44.702Z,579.00
2023-05-08T03:34:44.694Z,577.00
2023-05-08T03:35:44.717Z,580.00
2023-05-08T03:36:44.765Z,581.00
2023-05-08T03:37:44.755Z,581.00
2023-05-08T03:38:44.773Z,582.00
2023-05-08T03:39:44.825Z,579.00
2023-05-08T03:40:44.841Z,584.00
2023-05-08T03:41:45.183Z,581.00
2023-05-08T03:42:44.868Z,582.00
2023-05-08T03:43:44.867Z,578.00
2023-05-08T03:44:44.881Z,583.00
2023-05-08T03:45:44.941Z,578.00
2023-05-08T03:46:44.951Z,575.00
2023-05-08T03:47:44.976Z,580.00
2023-05-08T03:48:44.940Z,580.00
2023-05-08T03:49:44.970Z,579.00
2023-05-08T03:50:45.029Z,584.00
2023-05-08T03:51:45.091Z,580.00
2023-05-08T03:52:45.054Z,579.00
2023-05-08T03:53:45.085Z,580.00
2023-05-08T03:54:45.065Z,579.00
2023-05-08T03:55:45.102Z,577.00
2023-05-08T03:56:45.105Z,581.00
2023-05-08T03:57:45.114Z,581.00
2023-05-08T03:58:45.128Z,577.00
2023-05-08T03:59:45.163Z,583.00
2023-05-08T04:00:45.195Z,578.00
2023-05-08T04:01:45.240Z,578.00
2023-05-08T04:02:45.187Z,581.00
2023-05-08T04:03:45.252Z,577.00
2023-05-08T04:04:45.234Z,576.00
2023-05-08T04:05:45.242Z,579.00
2023-05-08T04:06:50.141Z,576.00
2023-05-08T04:07:46.245Z,577.00
2023-05-08T04:08:45.253Z,577.00
2023-05-08T04:09:45.258Z,577.00
2023-05-08T04:10:45.269Z,575.00
2023-05-08T04:11:45.252Z,572.00
2023-05-08T04:12:45.237Z,579.00
2023-05-08T04:13:45.236Z,576.00
2023-05-08T04:14:45.243Z,578.00
2023-05-08T04:15:45.195Z,574.00
2023-05-08T04:16:45.252Z,576.00
2023-05-08T04:17:45.180Z,575.00
2023-05-08T04:18:45.162Z,577.00
2023-05-08T04:19:45.180Z,574.00
2023-05-08T04:20:46.229Z,574.00
2023-05-08T04:21:45.185Z,577.00
2023-05-08T04:22:45.162Z,579.00
2023-05-08T04:23:45.130Z,577.00
2023-05-08T04:24:45.098Z,577.00
2023-05-08T04:25:45.124Z,576.00
2023-05-08T04:26:45.110Z,580.00
2023-05-08T04:27:45.168Z,576.00
2023-05-08T04:28:45.104Z,576.00
2023-05-08T04:29:45.089Z,577.00
2023-05-08T04:30:45.077Z,576.00
2023-05-08T04:31:45.117Z,580.00
2023-05-08T04:32:46.754Z,573.00
2023-05-08T04:33:45.187Z,575.00
2023-05-08T04:34:45.177Z,578.00
2023-05-08T04:35:45.204Z,575.00
2023-05-08T04:36:45.211Z,573.00
2023-05-08T04:37:45.265Z,576.00
2023-05-08T04:38:45.265Z,574.00
2023-05-08T04:39:45.262Z,572.00
2023-05-08T04:40:45.276Z,576.00
2023-05-08T04:41:45.399Z,577.00
2023-05-08T04:42:45.328Z,577.00
2023-05-08T04:43:45.367Z,573.00
2023-05-08T04:44:45.362Z,575.00
2023-05-08T04:45:45.455Z,574.00
2023-05-08T04:46:45.416Z,572.00
2023-05-08T04:47:45.576Z,572.00
2023-05-08T04:48:45.474Z,573.00
2023-05-08T04:49:45.558Z,574.00
2023-05-08T04:50:45.507Z,574.00
2023-05-08T04:51:45.561Z,575.00
2023-05-08T04:52:45.569Z,576.00
2023-05-08T04:53:45.607Z,569.00
2023-05-08T04:54:45.624Z,564.00
2023-05-08T04:55:45.664Z,542.00
2023-05-08T04:56:45.672Z,528.00
2023-05-08T04:57:46.151Z,516.00
2023-05-08T04:58:45.751Z,504.00
2023-05-08T04:59:45.758Z,501.00
2023-05-08T05:00:45.782Z,503.00
2023-05-08T05:01:45.881Z,501.00
2023-05-08T05:02:45.874Z,500.00
2023-05-08T05:03:45.915Z,500.00
2023-05-08T05:04:45.968Z,500.00
2023-05-08T05:05:46.021Z,502.00
2023-05-08T05:06:46.062Z,501.00
2023-05-08T05:07:46.095Z,500.00
2023-05-08T05:08:46.135Z,503.00
2023-05-08T05:09:46.153Z,504.00
2023-05-08T05:10:46.259Z,502.00
2023-05-08T05:11:46.298Z,501.00
2023-05-08T05:12:46.762Z,500.00
2023-05-08T05:13:46.443Z,504.00
2023-05-08T05:14:46.464Z,503.00
2023-05-08T05:15:46.646Z,503.00
2023-05-08T05:16:46.650Z,503.00
2023-05-08T05:17:46.694Z,503.00
2023-05-08T05:18:46.712Z,558.00
2023-05-08T05:19:46.734Z,523.00
2023-05-08T05:20:46.794Z,612.00
2023-05-08T05:21:46.896Z,576.00
2023-05-08T05:22:46.930Z,580.00
2023-05-08T05:23:46.933Z,544.00
2023-05-08T05:24:47.034Z,546.00
2023-05-08T05:25:47.061Z,594.00
2023-05-08T05:26:47.150Z,601.00
2023-05-08T05:27:47.161Z,689.00
2023-05-08T05:28:47.211Z,616.00
2023-05-08T05:29:47.233Z,678.00
2023-05-08T05:30:47.294Z,675.00
2023-05-08T05:31:47.340Z,641.00
2023-05-08T05:32:47.475Z,643.00
2023-05-08T05:33:47.458Z,648.00
2023-05-08T05:34:47.476Z,655.00
2023-05-08T05:35:47.524Z,665.00
2023-05-08T05:36:47.572Z,660.00
2023-05-08T05:37:47.624Z,653.00
2023-05-08T05:38:47.641Z,658.00
2023-05-08T05:39:47.714Z,663.00
2023-05-08T05:40:47.752Z,655.00
2023-05-08T05:41:47.809Z,653.00
2023-05-08T05:42:47.878Z,649.00
2023-05-08T05:43:47.913Z,647.00
2023-05-08T05:44:47.992Z,649.00
2023-05-08T05:45:48.091Z,659.00
2023-05-08T05:46:48.152Z,705.00
2023-05-08T05:47:48.187Z,726.00
2023-05-08T05:48:48.230Z,700.00
2023-05-08T05:49:48.329Z,713.00
2023-05-08T05:50:48.352Z,716.00
2023-05-08T05:51:48.420Z,711.00
2023-05-08T05:52:48.502Z,736.00
2023-05-08T05:53:48.487Z,735.00
2023-05-08T05:54:48.942Z,733.00
2023-05-08T05:55:48.585Z,741.00
2023-05-08T05:56:48.623Z,765.00
2023-05-08T05:57:48.697Z,769.00
2023-05-08T05:58:48.736Z,751.00
2023-05-08T05:59:48.813Z,740.00
2023-05-08T06:00:48.836Z,740.00
2023-05-08T06:01:48.892Z,730.00
2023-05-08T06:02:49.158Z,740.00
2023-05-08T06:03:49.074Z,739.00
2023-05-08T06:04:48.984Z,729.00
2023-05-08T06:05:49.028Z,696.00
2023-05-08T06:06:49.115Z,699.00
2023-05-08T06:07:49.180Z,694.00
2023-05-08T06:08:49.218Z,683.00
2023-05-08T06:09:49.311Z,669.00
2023-05-08T06:10:49.315Z,662.00
2023-05-08T06:11:49.374Z,660.00
2023-05-08T06:12:49.471Z,658.00
2023-05-08T06:13:50.713Z,656.00
2023-05-08T06:14:49.567Z,652.00
2023-05-08T06:15:49.608Z,649.00
2023-05-08T06:16:49.680Z,644.00
2023-05-08T06:17:49.739Z,637.00
2023-05-08T06:18:49.782Z,637.00
2023-05-08T06:19:49.834Z,629.00
2023-05-08T06:20:49.871Z,629.00
2023-05-08T06:21:49.950Z,624.00
2023-05-08T06:22:50.175Z,618.00
2023-05-08T06:23:50.067Z,620.00
2023-05-08T06:24:50.139Z,618.00
2023-05-08T06:25:50.217Z,607.00
2023-05-08T06:26:50.224Z,604.00
2023-05-08T06:27:50.332Z,602.00
2023-05-08T06:28:50.343Z,599.00
2023-05-08T06:29:50.411Z,600.00
2023-05-08T06:30:50.474Z,597.00
2023-05-08T06:31:50.516Z,598.00
2023-05-08T06:32:50.746Z,592.00
2023-05-08T06:33:50.635Z,592.00
2023-05-08T06:34:50.683Z,587.00
2023-05-08T06:35:50.739Z,588.00
2023-05-08T06:36:50.819Z,586.00
2023-05-08T06:37:51.234Z,585.00
2023-05-08T06:38:50.900Z,585.00
2023-05-08T06:40:00.330Z,582.00
2023-05-08T06:40:51.938Z,582.00
2023-05-08T06:41:50.916Z,582.00
2023-05-08T06:42:51.357Z,579.00
2023-05-08T06:43:50.893Z,578.00
2023-05-08T06:44:50.894Z,574.00
2023-05-08T06:45:50.976Z,574.00
2023-05-08T06:46:51.030Z,573.00
2023-05-08T06:47:50.913Z,571.00
2023-05-08T06:48:50.902Z,569.00
2023-05-08T06:49:50.880Z,564.00
2023-05-08T06:50:50.884Z,563.00
2023-05-08T06:51:50.958Z,560.00
2023-05-08T06:52:50.986Z,598.00
2023-05-08T06:53:51.088Z,615.00
2023-05-08T06:54:51.104Z,634.00
2023-05-08T06:55:51.202Z,668.00
2023-05-08T06:56:51.238Z,717.00
2023-05-08T06:57:51.716Z,783.00
2023-05-08T06:59:04.550Z,805.00
2023-05-08T06:59:52.310Z,807.00
2023-05-08T07:00:51.255Z,817.00
2023-05-08T07:01:51.256Z,841.00
2023-05-08T07:02:51.788Z,905.00
2023-05-08T07:03:51.212Z,1033.00
2023-05-08T07:04:51.228Z,1093.00
2023-05-08T07:05:51.208Z,1073.00
2023-05-08T07:06:51.197Z,1102.00
2023-05-08T07:07:51.243Z,1140.00
2023-05-08T07:08:51.198Z,1153.00
2023-05-08T07:09:52.239Z,1154.00
2023-05-08T07:10:51.264Z,1160.00
2023-05-08T07:11:51.186Z,1178.00
2023-05-08T07:12:51.235Z,1206.00
2023-05-08T07:13:51.178Z,1242.00
2023-05-08T07:14:51.206Z,1267.00
2023-05-08T07:15:51.222Z,1279.00
2023-05-08T07:16:51.210Z,1264.00
2023-05-08T07:17:51.273Z,1258.00
2023-05-08T07:18:51.213Z,1295.00
2023-05-08T07:19:51.201Z,1280.00
2023-05-08T07:20:51.152Z,1295.00
2023-05-08T07:21:51.173Z,1275.00
2023-05-08T07:22:51.244Z,1288.00
2023-05-08T07:23:51.155Z,1295.00
2023-05-08T07:24:51.197Z,1309.00
2023-05-08T07:25:51.263Z,1359.00
2023-05-08T07:26:51.325Z,1366.00
2023-05-08T07:27:51.402Z,1337.00
2023-05-08T07:28:51.330Z,1347.00
2023-05-08T07:29:51.321Z,1329.00
2023-05-08T07:30:51.337Z,1355.00
2023-05-08T07:31:51.566Z,1319.00
2023-05-08T07:32:51.510Z,1349.00
2023-05-08T07:33:51.405Z,1345.00
2023-05-08T07:34:51.434Z,1338.00
2023-05-08T07:35:51.431Z,1372.00
2023-05-08T07:36:51.473Z,1349.00
2023-05-08T07:37:51.469Z,1317.00
2023-05-08T07:38:51.496Z,1327.00
2023-05-08T07:39:51.494Z,1326.00
2023-05-08T07:40:51.556Z,1327.00
2023-05-08T07:41:51.658Z,1351.00
2023-05-08T07:42:51.691Z,1352.00
2023-05-08T07:43:51.679Z,1355.00
2023-05-08T07:44:54.797Z,1354.00
2023-05-08T07:45:51.730Z,1326.00
2023-05-08T07:46:51.755Z,1335.00
2023-05-08T07:47:51.744Z,1364.00
2023-05-08T07:48:51.727Z,1300.00
2023-05-08T07:49:51.738Z,1335.00
2023-05-08T07:50:51.660Z,1339.00
2023-05-08T07:51:51.677Z,1309.00
2023-05-08T07:52:51.671Z,1370.00
2023-05-08T07:53:51.634Z,1408.00
2023-05-08T07:54:51.658Z,1396.00
2023-05-08T07:55:51.631Z,1308.00
2023-05-08T07:56:51.670Z,1062.00
2023-05-08T07:57:51.627Z,1088.00
2023-05-08T07:58:51.622Z,950.00
2023-05-08T07:59:51.639Z,810.00
2023-05-08T08:00:51.630Z,752.00
2023-05-08T08:01:51.664Z,756.00
2023-05-08T08:02:51.848Z,741.00
2023-05-08T08:03:51.685Z,844.00
2023-05-08T08:04:51.561Z,869.00
2023-05-08T08:05:51.575Z,932.00
2023-05-08T08:06:51.562Z,978.00
2023-05-08T08:07:51.585Z,936.00
2023-05-08T08:08:51.553Z,1002.00
2023-05-08T08:09:51.529Z,1025.00
2023-05-08T08:10:52.235Z,1023.00
2023-05-08T08:11:51.575Z,1009.00
2023-05-08T08:12:51.824Z,1029.00
2023-05-08T08:13:51.483Z,1036.00
2023-05-08T08:14:51.492Z,1072.00
2023-05-08T08:15:51.550Z,1048.00
2023-05-08T08:16:51.556Z,1119.00
2023-05-08T08:17:51.796Z,1082.00
2023-05-08T08:18:51.580Z,1089.00
2023-05-08T08:19:51.489Z,1153.00
2023-05-08T08:20:51.436Z,1119.00
2023-05-08T08:21:51.511Z,1137.00
2023-05-08T08:22:51.743Z,1129.00
2023-05-08T08:23:51.451Z,1134.00
2023-05-08T08:24:54.075Z,986.00
2023-05-08T08:25:51.468Z,989.00
2023-05-08T08:26:51.465Z,998.00
2023-05-08T08:27:51.464Z,1012.00
2023-05-08T08:28:51.429Z,1052.00
2023-05-08T08:29:58.508Z,1073.00
2023-05-08T08:30:52.473Z,993.00
2023-05-08T08:31:51.387Z,995.00
2023-05-08T08:32:51.406Z,1028.00
2023-05-08T08:33:51.370Z,1061.00
2023-05-08T08:34:51.475Z,1108.00
2023-05-08T08:35:51.359Z,1138.00
2023-05-08T08:36:51.348Z,1160.00
2023-05-08T08:37:51.362Z,1154.00
2023-05-08T08:38:51.364Z,1125.00
2023-05-08T08:39:51.300Z,1137.00
2023-05-08T08:40:51.356Z,1165.00
2023-05-08T08:41:51.313Z,1254.00
2023-05-08T08:42:51.334Z,1218.00
2023-05-08T08:43:51.298Z,1178.00
2023-05-08T08:44:51.296Z,1186.00
2023-05-08T08:45:51.351Z,1183.00
2023-05-08T08:46:51.386Z,1183.00
2023-05-08T08:47:51.317Z,1181.00
2023-05-08T08:48:51.272Z,1192.00
2023-05-08T08:49:51.263Z,1190.00
2023-05-08T08:50:51.333Z,1205.00
2023-05-08T08:51:51.211Z,1201.00
2023-05-08T08:52:51.228Z,1230.00
2023-05-08T08:53:51.230Z,1243.00
2023-05-08T08:54:51.253Z,1245.00
2023-05-08T08:55:51.210Z,1182.00
2023-05-08T08:56:51.247Z,1227.00
2023-05-08T08:57:51.188Z,1180.00
2023-05-08T08:58:51.162Z,1112.00
2023-05-08T08:59:51.198Z,1087.00
2023-05-08T09:00:51.204Z,1082.00
2023-05-08T09:01:51.255Z,1100.00
2023-05-08T09:02:51.436Z,1091.00
2023-05-08T09:03:51.395Z,1149.00
2023-05-08T09:04:51.285Z,947.00
2023-05-08T09:05:51.280Z,924.00
2023-05-08T09:06:51.485Z,987.00
2023-05-08T09:07:51.426Z,964.00
2023-05-08T09:08:51.438Z,970.00
2023-05-08T09:09:51.501Z,978.00
2023-05-08T09:10:51.490Z,980.00
2023-05-08T09:11:51.520Z,970.00
2023-05-08T09:12:51.590Z,1001.00
2023-05-08T09:13:51.556Z,967.00
2023-05-08T09:14:51.597Z,924.00
2023-05-08T09:15:51.615Z,947.00
2023-05-08T09:16:51.653Z,867.00
2023-05-08T09:17:51.672Z,918.00
2023-05-08T09:18:51.689Z,944.00
2023-05-08T09:19:51.728Z,993.00
2023-05-08T09:20:51.703Z,989.00
2023-05-08T09:21:51.715Z,973.00
2023-05-08T09:22:51.829Z,975.00
2023-05-08T09:23:51.757Z,974.00
2023-05-08T09:24:51.754Z,995.00
2023-05-08T09:25:51.794Z,998.00
2023-05-08T09:26:51.804Z,973.00
2023-05-08T09:27:52.238Z,984.00
2023-05-08T09:28:51.830Z,843.00
2023-05-08T09:29:51.834Z,957.00
2023-05-08T09:30:51.852Z,983.00
2023-05-08T09:31:51.919Z,982.00
2023-05-08T09:32:51.949Z,1004.00
2023-05-08T09:33:51.895Z,996.00
2023-05-08T09:34:51.872Z,964.00
2023-05-08T09:35:51.857Z,987.00
2023-05-08T09:36:51.895Z,993.00
2023-05-08T09:37:51.900Z,1010.00
2023-05-08T09:38:51.986Z,1028.00
2023-05-08T09:39:51.918Z,1027.00
2023-05-08T09:40:51.922Z,1077.00
2023-05-08T09:41:51.922Z,1064.00
2023-05-08T09:42:51.921Z,1101.00
2023-05-08T09:43:52.275Z,1113.00
2023-05-08T09:44:52.051Z,1149.00
2023-05-08T09:45:52.124Z,1147.00
2023-05-08T09:46:52.048Z,1180.00
2023-05-08T09:47:52.136Z,1210.00
2023-05-08T09:48:52.169Z,1291.00
2023-05-08T09:49:52.189Z,1280.00
2023-05-08T09:50:52.242Z,981.00
2023-05-08T09:51:52.327Z,1029.00
2023-05-08T09:52:52.395Z,970.00
2023-05-08T09:53:52.766Z,1080.00
2023-05-08T09:54:52.470Z,1098.00
2023-05-08T09:55:52.435Z,936.00
2023-05-08T09:56:52.456Z,1004.00
2023-05-08T09:57:52.550Z,1023.00
2023-05-08T09:58:52.569Z,1026.00
2023-05-08T09:59:52.605Z,1010.00
2023-05-08T10:00:52.682Z,1024.00
2023-05-08T10:01:52.590Z,998.00
2023-05-08T10:02:52.646Z,1005.00
2023-05-08T10:03:52.813Z,1003.00
2023-05-08T10:04:52.659Z,1011.00
2023-05-08T10:05:52.617Z,996.00
2023-05-08T10:06:54.037Z,990.00
2023-05-08T10:07:52.631Z,986.00
2023-05-08T10:08:52.633Z,976.00
2023-05-08T10:09:52.653Z,985.00
2023-05-08T10:10:52.702Z,984.00
2023-05-08T10:11:52.581Z,960.00
2023-05-08T10:12:52.607Z,977.00
2023-05-08T10:13:52.599Z,946.00
2023-05-08T10:14:59.558Z,960.00
2023-05-08T10:15:52.576Z,963.00
2023-05-08T10:16:52.642Z,965.00
2023-05-08T10:17:52.596Z,944.00
2023-05-08T10:18:52.574Z,955.00
2023-05-08T10:19:52.537Z,953.00
2023-05-08T10:20:52.550Z,960.00
2023-05-08T10:21:52.518Z,958.00
2023-05-08T10:22:52.518Z,959.00
2023-05-08T10:23:52.509Z,949.00
2023-05-08T10:24:52.526Z,944.00
2023-05-08T10:25:54.797Z,949.00
2023-05-08T10:27:05.689Z,959.00
2023-05-08T10:27:53.609Z,960.00
2023-05-08T10:28:52.572Z,954.00
2023-05-08T10:29:52.646Z,945.00
2023-05-08T10:30:53.578Z,936.00
2023-05-08T10:31:52.575Z,928.00
2023-05-08T10:32:52.576Z,936.00
2023-05-08T10:33:52.558Z,945.00
2023-05-08T10:34:52.536Z,937.00
2023-05-08T10:35:52.524Z,922.00
2023-05-08T10:36:54.220Z,914.00
2023-05-08T10:37:52.521Z,916.00
2023-05-08T10:38:52.791Z,909.00
2023-05-08T10:39:52.575Z,901.00
2023-05-08T10:40:52.589Z,874.00
2023-05-08T10:41:52.621Z,838.00
2023-05-08T10:42:52.813Z,838.00
2023-05-08T10:43:52.768Z,759.00
2023-05-08T10:44:52.783Z,754.00
2023-05-08T10:45:52.877Z,774.00
2023-05-08T10:46:52.865Z,714.00
2023-05-08T10:47:52.995Z,721.00
2023-05-08T10:48:52.936Z,694.00
2023-05-08T10:49:52.971Z,682.00
2023-05-08T10:50:53.012Z,653.00
2023-05-08T10:51:53.022Z,635.00
2023-05-08T10:52:53.034Z,624.00
2023-05-08T10:53:53.291Z,618.00
2023-05-08T10:54:53.040Z,606.00
2023-05-08T10:55:53.060Z,603.00
2023-05-08T10:56:53.062Z,603.00
2023-05-08T10:57:53.045Z,600.00
2023-05-08T10:58:53.068Z,579.00
2023-05-08T10:59:53.158Z,580.00
2023-05-08T11:00:53.168Z,577.00
2023-05-08T11:01:53.350Z,575.00
2023-05-08T11:02:53.294Z,570.00
2023-05-08T11:03:53.398Z,570.00
2023-05-08T11:04:53.257Z,569.00
2023-05-08T11:05:53.265Z,556.00
2023-05-08T11:06:53.347Z,558.00
2023-05-08T11:07:53.316Z,551.00
2023-05-08T11:08:53.345Z,539.00
2023-05-08T11:09:53.366Z,530.00
2023-05-08T11:10:53.370Z,526.00
2023-05-08T11:11:53.370Z,529.00
2023-05-08T11:12:53.493Z,519.00
2023-05-08T11:13:53.490Z,515.00
2023-05-08T11:14:53.485Z,516.00
2023-05-08T11:15:53.531Z,507.00
2023-05-08T11:16:53.505Z,510.00
2023-05-08T11:17:53.542Z,500.00
2023-05-08T11:18:53.823Z,499.00
2023-05-08T11:19:53.633Z,517.00
2023-05-08T11:20:53.617Z,509.00
2023-05-08T11:21:53.632Z,501.00
2023-05-08T11:22:53.693Z,501.00
2023-05-08T11:23:53.795Z,514.00
2023-05-08T11:24:53.729Z,508.00
2023-05-08T11:25:53.811Z,498.00
2023-05-08T11:26:53.804Z,501.00
2023-05-08T11:27:53.830Z,513.00
2023-05-08T11:28:54.336Z,523.00
2023-05-08T11:29:53.903Z,500.00
2023-05-08T11:30:53.948Z,519.00
2023-05-08T11:31:54.027Z,504.00
2023-05-08T11:32:54.048Z,510.00
2023-05-08T11:33:54.067Z,513.00
2023-05-08T11:34:54.071Z,503.00
2023-05-08T11:35:54.172Z,512.00
2023-05-08T11:36:54.176Z,510.00
2023-05-08T11:37:54.228Z,522.00
2023-05-08T11:38:56.307Z,517.00
2023-05-08T11:39:54.306Z,520.00
2023-05-08T11:40:54.428Z,516.00
2023-05-08T11:41:54.360Z,524.00
2023-05-08T11:42:54.408Z,501.00
2023-05-08T11:43:54.454Z,521.00
2023-05-08T11:44:54.498Z,524.00
2023-05-08T11:45:54.548Z,512.00
2023-05-08T11:46:54.651Z,503.00
2023-05-08T11:47:54.715Z,522.00
2023-05-08T11:48:54.711Z,504.00
2023-05-08T11:49:54.769Z,515.00
2023-05-08T11:50:54.816Z,509.00
2023-05-08T11:51:54.865Z,507.00
2023-05-08T11:52:54.891Z,509.00
2023-05-08T11:53:55.330Z,512.00
2023-05-08T11:54:54.922Z,504.00
2023-05-08T11:55:55.023Z,517.00
2023-05-08T11:56:55.021Z,511.00
2023-05-08T11:57:55.043Z,529.00
2023-05-08T11:58:55.130Z,537.00
2023-05-08T11:59:55.133Z,539.00
2023-05-08T12:00:55.310Z,525.00
2023-05-08T12:02:06.834Z,502.00
2023-05-08T12:02:56.285Z,502.00
2023-05-08T12:03:55.369Z,482.00
2023-05-08T12:04:55.222Z,469.00
2023-05-08T12:05:55.247Z,471.00
2023-05-08T12:06:55.181Z,466.00
2023-05-08T12:07:55.193Z,510.00
2023-05-08T12:08:55.205Z,506.00
2023-05-08T12:09:55.191Z,519.00
2023-05-08T12:10:55.176Z,507.00
2023-05-08T12:11:55.179Z,500.00
2023-05-08T12:12:55.221Z,533.00
2023-05-08T12:13:55.262Z,525.00
2023-05-08T12:14:55.285Z,506.00
2023-05-08T12:15:55.322Z,521.00
2023-05-08T12:16:55.390Z,513.00
2023-05-08T12:17:55.440Z,508.00
2023-05-08T12:18:55.474Z,518.00
2023-05-08T12:19:55.481Z,502.00
2023-05-08T12:20:55.530Z,512.00
2023-05-08T12:21:55.555Z,509.00
2023-05-08T12:22:55.605Z,518.00
2023-05-08T12:23:55.680Z,525.00
2023-05-08T12:24:55.700Z,525.00